createdAt,value
2023-01-26T00:02:55.959Z,33.77
2023-01-26T00:07:58.912Z,40.77
2023-01-26T00:13:01.960Z,31.50
2023-01-26T00:18:04.921Z,34.93
2023-01-26T00:23:07.926Z,34.67
2023-01-26T00:28:10.961Z,29.23
2023-01-26T00:33:13.929Z,37.07
2023-01-26T00:38:16.804Z,42.13
2023-01-26T00:43:19.842Z,42.07
2023-01-26T00:48:24.638Z,41.50
2023-01-26T00:53:28.005Z,34.47
2023-01-26T00:58:31.074Z,38.03
2023-01-26T01:03:33.920Z,38.03
2023-01-26T01:08:37.390Z,32.10
2023-01-26T01:13:40.507Z,41.43
2023-01-26T01:18:44.671Z,50.50
2023-01-26T01:23:47.913Z,45.80
2023-01-26T01:29:00.487Z,42.70
2023-01-26T01:34:03.393Z,39.73
2023-01-26T01:39:06.520Z,39.20
2023-01-26T01:44:27.624Z,39.37
2023-01-26T01:49:49.595Z,33.73
2023-01-26T01:55:08.782Z,31.58
2023-01-26T02:00:18.665Z,38.53
2023-01-26T02:05:31.408Z,34.33
2023-01-26T02:10:34.349Z,34.33
2023-01-26T02:15:38.056Z,28.33
2023-01-26T02:20:47.830Z,37.37
2023-01-26T02:25:52.812Z,35.00
2023-01-26T02:30:56.992Z,39.93
2023-01-26T02:36:02.784Z,38.10
2023-01-26T02:41:12.802Z,37.53
2023-01-26T02:46:15.990Z,29.33
2023-01-26T02:51:18.880Z,34.13
2023-01-26T02:56:21.797Z,41.73
2023-01-26T03:01:24.811Z,44.67
2023-01-26T03:06:27.893Z,36.20
2023-01-26T03:11:42.071Z,37.30
2023-01-26T03:16:45.225Z,36.30
2023-01-26T03:22:06.348Z,35.73
2023-01-26T03:27:28.550Z,40.77
2023-01-26T03:32:31.513Z,39.63
2023-01-26T03:37:37.084Z,34.10
2023-01-26T03:42:58.796Z,31.23
2023-01-26T03:48:31.758Z,44.13
2023-01-26T03:53:53.117Z,38.77
2023-01-26T03:59:08.435Z,39.22
2023-01-26T04:04:30.376Z,38.13
2023-01-26T04:09:34.083Z,41.83
2023-01-26T04:14:55.373Z,41.40
2023-01-26T04:20:18.175Z,41.63
2023-01-26T04:25:22.193Z,44.83
2023-01-26T04:30:25.224Z,38.07
2023-01-26T04:35:28.178Z,40.97
2023-01-26T04:40:31.081Z,50.40
2023-01-26T04:45:33.841Z,28.40
2023-01-26T04:50:36.817Z,30.80
2023-01-26T04:55:39.803Z,42.67
2023-01-26T05:00:42.900Z,36.07
2023-01-26T05:05:50.782Z,38.93
2023-01-26T05:10:53.741Z,43.90
2023-01-26T05:15:57.111Z,41.50
2023-01-26T05:21:00.120Z,45.70
2023-01-26T05:26:04.008Z,36.53
2023-01-26T05:31:07.155Z,30.07
2023-01-26T05:36:10.464Z,40.03
2023-01-26T05:41:13.414Z,40.60
2023-01-26T05:46:16.364Z,29.13
2023-01-26T05:51:19.450Z,31.03
2023-01-26T05:56:22.377Z,39.00
2023-01-26T06:01:25.404Z,33.63
2023-01-26T06:06:28.394Z,40.47
2023-01-26T06:11:33.279Z,36.20
2023-01-26T06:16:36.370Z,29.53
2023-01-26T06:21:39.292Z,35.97
2023-01-26T06:26:42.223Z,30.40
2023-01-26T06:31:45.463Z,30.80
2023-01-26T06:36:48.429Z,22.77
2023-01-26T06:41:51.186Z,35.47
2023-01-26T06:46:54.273Z,30.90
2023-01-26T06:52:27.791Z,31.80
2023-01-26T06:57:30.926Z,29.55
2023-01-26T07:02:34.057Z,34.27
2023-01-26T07:07:37.283Z,33.40
2023-01-26T07:12:46.165Z,28.50
2023-01-26T07:17:49.685Z,41.73
2023-01-26T07:22:52.769Z,47.63
2023-01-26T07:27:59.586Z,40.43
2023-01-26T07:33:02.949Z,34.73
2023-01-26T07:38:06.365Z,32.27
2023-01-26T07:43:09.288Z,34.33
2023-01-26T07:48:12.606Z,33.20
2023-01-26T07:53:19.481Z,26.80
2023-01-26T07:58:22.600Z,25.77
2023-01-26T08:03:25.464Z,28.27
2023-01-26T08:08:56.588Z,21.27
2023-01-26T08:13:59.548Z,24.50
2023-01-26T08:19:03.082Z,23.27
2023-01-26T08:24:06.541Z,25.00
2023-01-26T08:29:09.733Z,26.77
2023-01-26T08:34:13.072Z,58.23
2023-01-26T08:39:16.052Z,27.40
2023-01-26T08:44:18.795Z,25.73
2023-01-26T08:49:21.770Z,26.53
2023-01-26T08:54:24.879Z,25.67
2023-01-26T08:59:27.746Z,28.47
2023-01-26T09:04:30.669Z,21.10
2023-01-26T09:09:33.871Z,25.03
2023-01-26T09:14:36.855Z,27.97
2023-01-26T09:19:40.301Z,22.07
2023-01-26T09:24:43.543Z,20.80
2023-01-26T09:29:46.440Z,17.50
2023-01-26T09:34:49.416Z,17.87
2023-01-26T09:39:52.454Z,17.30
2023-01-26T09:45:13.699Z,18.80
2023-01-26T09:50:24.439Z,17.10
2023-01-26T09:55:29.071Z,15.33
2023-01-26T10:00:44.594Z,15.53
2023-01-26T10:06:27.888Z,15.77
2023-01-26T10:11:43.214Z,13.27
2023-01-26T10:16:51.690Z,15.53
2023-01-26T10:21:59.667Z,14.50
2023-01-26T10:27:02.772Z,19.00
2023-01-26T10:32:05.894Z,12.03
2023-01-26T10:37:29.773Z,17.07
2023-01-26T10:42:35.153Z,16.23
2023-01-26T10:47:38.412Z,19.87
2023-01-26T10:53:02.543Z,15.67
2023-01-26T10:58:05.699Z,15.60
2023-01-26T11:03:19.325Z,18.40
2023-01-26T11:08:37.856Z,15.80
2023-01-26T11:13:40.727Z,19.60
2023-01-26T11:19:03.319Z,18.53
2023-01-26T11:24:42.536Z,15.30
2023-01-26T11:30:07.449Z,14.30
2023-01-26T11:35:15.355Z,13.63
2023-01-26T11:40:40.993Z,39.60
2023-01-26T11:46:15.244Z,18.50
2023-01-26T11:52:06.014Z,19.07
2023-01-26T11:57:08.700Z,14.27
2023-01-26T12:02:27.573Z,21.50
2023-01-26T12:07:55.368Z,17.37
2023-01-26T12:13:10.186Z,14.27
2023-01-26T12:18:29.903Z,12.57
2023-01-26T12:23:57.998Z,21.83
2023-01-26T12:29:20.705Z,14.27
2023-01-26T12:34:29.641Z,19.67
2023-01-26T12:39:45.776Z,13.63
2023-01-26T12:45:02.163Z,17.30
2023-01-26T12:50:30.611Z,18.07
2023-01-26T12:55:49.695Z,21.70
2023-01-26T13:01:09.895Z,22.17
2023-01-26T13:06:12.814Z,23.53
2023-01-26T13:11:48.801Z,18.30
2023-01-26T13:16:51.869Z,19.33
2023-01-26T13:21:54.895Z,17.77
2023-01-26T13:26:59.979Z,14.00
2023-01-26T13:32:23.124Z,17.17
2023-01-26T13:37:58.261Z,26.23
2023-01-26T13:43:32.960Z,16.80
2023-01-26T13:48:49.488Z,21.50
2023-01-26T13:54:02.990Z,28.47
2023-01-26T13:59:19.471Z,21.40
2023-01-26T14:04:26.772Z,20.70
2023-01-26T14:09:33.885Z,18.80
2023-01-26T14:14:37.917Z,29.50
2023-01-26T14:19:48.481Z,20.93
2023-01-26T14:24:53.514Z,24.43
2023-01-26T14:29:57.128Z,35.93
2023-01-26T14:35:00.967Z,35.43
2023-01-26T14:40:19.642Z,18.80
2023-01-26T14:45:31.650Z,21.00
2023-01-26T14:50:37.022Z,18.80
2023-01-26T14:55:43.699Z,17.23
2023-01-26T15:00:50.737Z,17.67
2023-01-26T15:06:18.367Z,30.53
2023-01-26T15:11:55.802Z,44.33
2023-01-26T15:16:58.984Z,66.37
2023-01-26T15:22:01.785Z,48.47
2023-01-26T15:27:06.872Z,24.00
2023-01-26T15:32:32.559Z,17.00
2023-01-26T15:37:36.185Z,20.43
2023-01-26T15:42:39.515Z,24.77
2023-01-26T15:47:42.525Z,22.50
2023-01-26T15:52:45.568Z,23.20
2023-01-26T15:57:48.642Z,72.87
2023-01-26T16:02:51.780Z,35.10
2023-01-26T16:07:54.713Z,35.87
2023-01-26T16:12:57.709Z,30.70
2023-01-26T16:18:00.490Z,23.27
2023-01-26T16:23:03.973Z,20.03
2023-01-26T16:28:06.888Z,26.07
2023-01-26T16:33:13.992Z,32.33
2023-01-26T16:38:17.084Z,41.70
2023-01-26T16:43:29.863Z,34.77
2023-01-26T16:48:35.236Z,42.37
2023-01-26T16:53:38.236Z,48.97
2023-01-26T16:58:41.758Z,57.43
2023-01-26T17:03:45.457Z,39.10
2023-01-26T17:08:49.423Z,47.27
2023-01-26T17:13:52.713Z,47.80
2023-01-26T17:18:56.753Z,44.17
2023-01-26T17:23:59.867Z,45.83
2023-01-26T17:29:03.311Z,43.40
2023-01-26T17:34:06.623Z,44.63
2023-01-26T17:39:10.985Z,31.60
2023-01-26T17:44:15.219Z,35.93
2023-01-26T17:49:21.227Z,30.87
2023-01-26T17:54:24.418Z,35.03
2023-01-26T17:59:27.397Z,31.97
2023-01-26T18:04:31.559Z,41.93
2023-01-26T18:09:34.508Z,50.97
2023-01-26T18:14:37.434Z,39.80
2023-01-26T18:19:40.527Z,44.47
2023-01-26T18:24:43.357Z,33.50
2023-01-26T18:29:47.575Z,30.03
2023-01-26T18:34:50.434Z,62.57
2023-01-26T18:39:53.181Z,44.67
2023-01-26T18:45:01.011Z,39.10
2023-01-26T18:50:05.397Z,30.03
2023-01-26T18:55:10.463Z,46.93
2023-01-26T19:00:14.172Z,38.13
2023-01-26T19:05:17.172Z,37.43
2023-01-26T19:10:20.128Z,37.30
2023-01-26T19:15:22.993Z,51.83
2023-01-26T19:20:26.214Z,37.77
2023-01-26T19:25:29.185Z,29.73
2023-01-26T19:30:33.352Z,27.27
2023-01-26T19:35:38.111Z,67.03
2023-01-26T19:40:43.483Z,53.60
2023-01-26T19:45:53.181Z,89.03
2023-01-26T19:51:12.912Z,58.70
2023-01-26T19:56:23.622Z,42.80
2023-01-26T20:01:29.029Z,36.27
2023-01-26T20:06:35.153Z,38.33
2023-01-26T20:11:38.164Z,34.77
2023-01-26T20:16:41.426Z,41.90
2023-01-26T20:21:45.472Z,34.37
2023-01-26T20:26:48.591Z,41.23
2023-01-26T20:31:51.686Z,33.47
2023-01-26T20:37:00.052Z,32.30
2023-01-26T20:42:03.186Z,40.53
2023-01-26T20:47:06.251Z,27.33
2023-01-26T20:52:09.628Z,30.80
2023-01-26T20:57:12.503Z,27.23
2023-01-26T21:02:16.589Z,33.17
2023-01-26T21:07:19.979Z,23.87
2023-01-26T21:12:23.005Z,25.40
2023-01-26T21:17:26.013Z,24.83
2023-01-26T21:22:28.917Z,23.33
2023-01-26T21:27:31.863Z,25.47
2023-01-26T21:32:35.273Z,24.40
2023-01-26T21:37:38.230Z,20.10
2023-01-26T21:42:41.080Z,30.73
2023-01-26T21:47:43.919Z,22.57
2023-01-26T21:52:58.666Z,23.27
2023-01-26T21:58:19.896Z,16.47
2023-01-26T22:03:22.848Z,16.23
2023-01-26T22:08:25.878Z,18.00
2023-01-26T22:13:29.508Z,14.47
2023-01-26T22:18:32.526Z,14.73
2023-01-26T22:23:38.544Z,13.97
2023-01-26T22:28:44.381Z,13.13
2023-01-26T22:33:47.572Z,12.90
2023-01-26T22:38:51.603Z,18.87
2023-01-26T22:43:57.725Z,21.60
2023-01-26T22:49:01.053Z,19.90
2023-01-26T22:54:05.179Z,26.60
2023-01-26T22:59:08.539Z,26.83
2023-01-26T23:04:11.547Z,21.63
2023-01-26T23:09:14.528Z,23.33
2023-01-26T23:14:17.469Z,20.27
2023-01-26T23:19:20.332Z,24.00
2023-01-26T23:24:24.280Z,25.07
2023-01-26T23:29:27.306Z,21.47
2023-01-26T23:34:30.667Z,22.90
2023-01-26T23:39:33.583Z,16.90
2023-01-26T23:44:36.328Z,21.83
2023-01-26T23:49:39.217Z,23.63
2023-01-26T23:54:42.380Z,24.97
2023-01-26T23:59:45.293Z,32.57
